Friendship, Texas
Current Conditions -  °F | °C
As of 7:58 PM on Wednesday 26 Nov 2014 (Local Time) from KGRK Reporting Station
Clear Clear  
Wind Chill: 53°   Ceiling: Unl
Heat Index: 53°   Visibility: 10mi
Dew Point: 33°   Wind: 9mph
Humidity: 45%   Direction: 350°N
Pressure: 30.3"   Gusts: NA
Location:  30.7258°N, 97.436°W
Report Text: KGRK 270158Z AUTO 35008KT 10SM CLR 12/00 A3030 RMK AO2 RAB0120 SLP261 P0000 T01190003
Loading
Personal Weather Stations






























Interactive Weather Map New forecast layout! Learn more

10-Day Weather Forecast

Advertisements
Track Severe Weather on mobile